createdAt,value
2022-08-03T00:00:32.822Z,101452.09
2022-08-03T00:03:00.571Z,101449.63
2022-08-03T00:05:28.318Z,101443.63
2022-08-03T00:07:56.112Z,101455.44
2022-08-03T00:10:25.200Z,101456.84
2022-08-03T00:12:53.045Z,101444.53
2022-08-03T00:15:21.119Z,101445.66
2022-08-03T00:17:53.719Z,101445.94
2022-08-03T00:20:22.343Z,101443.81
2022-08-03T00:22:50.187Z,101451.53
2022-08-03T00:25:19.201Z,101451.84
2022-08-03T00:27:48.376Z,101446.63
2022-08-03T00:30:18.087Z,101458.22
2022-08-03T00:32:45.815Z,101451.09
2022-08-03T00:35:32.550Z,101448.94
2022-08-03T00:38:01.466Z,101442.94
2022-08-03T00:40:29.758Z,101447.09
2022-08-03T00:43:01.013Z,101444.66
2022-08-03T00:45:30.763Z,101441.38
2022-08-03T00:47:59.170Z,101439.53
2022-08-03T00:50:29.330Z,101433.53
2022-08-03T00:53:00.506Z,101435.97
2022-08-03T00:55:28.630Z,101437.41
2022-08-03T00:57:59.428Z,101434.94
2022-08-03T01:00:28.857Z,101432.50
2022-08-03T01:02:56.571Z,101437.47
2022-08-03T01:05:24.668Z,101434.22
2022-08-03T01:08:04.664Z,101443.56
2022-08-03T01:10:40.901Z,101432.88
2022-08-03T01:14:01.983Z,101432.38
2022-08-03T01:16:13.424Z,101435.41
2022-08-03T01:18:46.859Z,101432.97
2022-08-03T01:21:22.197Z,101428.88
2022-08-03T01:24:03.191Z,101425.63
2022-08-03T01:26:54.746Z,101417.16
2022-08-03T01:29:56.951Z,101425.09
2022-08-03T01:32:58.900Z,101420.72
2022-08-03T01:35:23.338Z,101429.78
2022-08-03T01:37:53.895Z,101423.75
2022-08-03T01:40:23.236Z,101422.94
2022-08-03T01:42:52.656Z,101418.88
2022-08-03T01:45:23.611Z,101418.06
2022-08-03T01:47:53.130Z,101414.25
2022-08-03T01:50:23.555Z,101416.72
2022-08-03T01:52:53.010Z,101419.47
2022-08-03T01:55:22.317Z,101416.19
2022-08-03T01:58:06.147Z,101403.44
2022-08-03T02:00:37.996Z,101408.56
2022-08-03T02:03:07.764Z,101414.34
2022-08-03T02:05:37.420Z,101410.78
2022-08-03T02:08:07.299Z,101408.34
2022-08-03T02:10:37.106Z,101412.19
2022-08-03T02:13:08.338Z,101406.19
2022-08-03T02:15:38.925Z,101407.28
2022-08-03T02:18:10.362Z,101410.03
2022-08-03T02:20:39.709Z,101412.56
2022-08-03T02:23:07.956Z,101413.66
2022-08-03T02:25:39.786Z,101408.78
2022-08-03T02:28:11.502Z,101405.28
2022-08-03T02:30:43.741Z,101418.72
2022-08-03T02:33:17.678Z,101411.88
2022-08-03T02:35:47.562Z,101405.88
2022-08-03T02:38:17.786Z,101408.41
2022-08-03T02:40:47.262Z,101405.13
2022-08-03T02:43:21.192Z,101396.38
2022-08-03T02:45:52.568Z,101403.56
2022-08-03T02:48:24.112Z,101399.72
2022-08-03T02:50:55.182Z,101396.41
2022-08-03T02:53:24.924Z,101396.50
2022-08-03T02:55:54.697Z,101393.75
2022-08-03T02:58:24.193Z,101400.34
2022-08-03T03:00:54.789Z,101394.34
2022-08-03T03:03:25.674Z,101400.94
2022-08-03T03:05:57.666Z,101402.34
2022-08-03T03:08:28.630Z,101391.94
2022-08-03T03:10:57.710Z,101394.69
2022-08-03T03:13:26.342Z,101392.25
2022-08-03T03:15:57.596Z,101385.41
2022-08-03T03:18:26.478Z,101392.03
2022-08-03T03:20:55.033Z,101389.28
2022-08-03T03:23:24.413Z,101389.56
2022-08-03T03:25:53.547Z,101389.56
2022-08-03T03:28:21.513Z,101388.75
2022-08-03T03:30:53.197Z,101393.41
2022-08-03T03:33:23.178Z,101397.28
2022-08-03T03:35:51.882Z,101381.09
2022-08-03T03:38:20.215Z,101390.97
2022-08-03T03:40:48.776Z,101394.00
2022-08-03T03:43:18.499Z,101392.66
2022-08-03T03:45:46.979Z,101395.41
2022-08-03T03:48:15.402Z,101394.59
2022-08-03T03:50:45.512Z,101389.41
2022-08-03T03:53:14.814Z,101391.09
2022-08-03T03:55:58.937Z,101395.19
2022-08-03T03:58:31.409Z,101393.84
2022-08-03T04:00:59.248Z,101399.31
2022-08-03T04:03:27.031Z,101385.09
2022-08-03T04:06:14.088Z,101390.06
2022-08-03T04:09:14.198Z,101387.59
2022-08-03T04:11:46.500Z,101384.34
2022-08-03T04:14:17.673Z,101377.28
2022-08-03T04:16:49.583Z,101384.91
2022-08-03T04:19:23.482Z,101389.88
2022-08-03T04:21:57.180Z,101389.34
2022-08-03T04:24:30.064Z,101391.56
2022-08-03T04:27:00.206Z,101390.22
2022-08-03T04:29:34.007Z,101394.38
2022-08-03T04:32:03.284Z,101389.75
2022-08-03T04:34:31.750Z,101399.91
2022-08-03T04:37:03.886Z,101406.50
2022-08-03T04:39:33.842Z,101403.75
2022-08-03T04:42:08.243Z,101404.06
2022-08-03T04:44:40.418Z,101390.69
2022-08-03T04:47:08.506Z,101407.09
2022-08-03T04:49:38.205Z,101395.31
2022-08-03T04:52:09.981Z,101396.69
2022-08-03T04:54:41.558Z,101406.03
2022-08-03T04:57:09.665Z,101407.94
2022-08-03T04:59:39.143Z,101408.25
2022-08-03T05:02:08.843Z,101417.88
2022-08-03T05:04:38.047Z,101417.00
2022-08-03T05:07:12.358Z,101409.91
2022-08-03T05:09:50.691Z,101409.91
2022-08-03T05:12:20.670Z,101411.81
2022-08-03T05:14:48.363Z,101419.22
2022-08-03T05:17:16.082Z,101418.94
2022-08-03T05:19:43.802Z,101431.00
2022-08-03T05:22:12.863Z,101430.19
2022-08-03T05:24:40.555Z,101432.13
2022-08-03T05:27:08.274Z,101431.81
2022-08-03T05:29:35.985Z,101434.31
2022-08-03T05:32:08.018Z,101430.47
2022-08-03T05:34:36.105Z,101429.34
2022-08-03T05:37:03.976Z,101432.63
2022-08-03T05:39:33.001Z,101435.06
2022-08-03T05:42:00.960Z,101432.84
2022-08-03T05:44:29.180Z,101432.84
2022-08-03T05:46:58.404Z,101436.38
2022-08-03T05:49:26.211Z,101429.47
2022-08-03T05:52:08.118Z,101439.88
2022-08-03T05:54:56.042Z,101439.28
2022-08-03T05:57:24.817Z,101442.56
2022-08-03T05:59:53.817Z,101443.09
2022-08-03T06:02:25.782Z,101437.59
2022-08-03T06:04:53.489Z,101436.50
2022-08-03T06:07:21.304Z,101436.50
2022-08-03T06:10:34.022Z,101436.78
2022-08-03T06:12:38.935Z,101435.97
2022-08-03T06:15:07.806Z,101434.03
2022-08-03T06:17:46.213Z,101439.53
2022-08-03T06:20:14.019Z,101440.28
2022-08-03T06:22:50.418Z,101441.09
2022-08-03T06:25:21.254Z,101436.44
2022-08-03T06:27:49.371Z,101439.69
2022-08-03T06:30:21.305Z,101438.31
2022-08-03T06:32:52.195Z,101437.19
2022-08-03T06:35:20.906Z,101436.59
2022-08-03T06:37:51.209Z,101437.13
2022-08-03T06:40:28.542Z,101433.28
2022-08-03T06:42:56.601Z,101441.22
2022-08-03T06:45:24.585Z,101442.56
2022-08-03T06:48:01.779Z,101445.59
2022-08-03T06:50:29.661Z,101447.16
2022-08-03T06:52:57.389Z,101447.09
2022-08-03T06:55:26.493Z,101447.94
2022-08-03T06:57:54.251Z,101447.63
2022-08-03T07:00:28.617Z,101450.38
2022-08-03T07:02:58.451Z,101452.81
2022-08-03T07:05:26.738Z,101447.03
2022-08-03T07:07:56.813Z,101429.91
2022-08-03T07:10:26.085Z,101452.00
2022-08-03T07:12:56.639Z,101460.25
2022-08-03T07:15:54.580Z,101459.72
2022-08-03T07:18:12.372Z,101457.78
2022-08-03T07:20:40.786Z,101461.94
2022-08-03T07:23:08.496Z,101464.44
2022-08-03T07:25:37.517Z,101463.63
2022-08-03T07:28:05.762Z,101467.47
2022-08-03T07:30:33.946Z,101474.06
2022-08-03T07:33:01.612Z,101470.81
2022-08-03T07:35:29.291Z,101477.09
2022-08-03T07:37:56.951Z,101476.22
2022-08-03T07:40:30.637Z,101475.72
2022-08-03T07:43:03.249Z,101473.25
2022-08-03T07:45:31.456Z,101468.59
2022-08-03T07:47:59.163Z,101468.28
2022-08-03T07:50:27.348Z,101471.03
2022-08-03T07:52:56.088Z,101475.72
2022-08-03T07:55:26.158Z,101467.47
2022-08-03T07:58:06.152Z,101463.34
2022-08-03T08:00:34.843Z,101465.56
2022-08-03T08:03:02.816Z,101467.47
2022-08-03T08:05:30.598Z,101471.78
2022-08-03T08:07:58.322Z,101467.41
2022-08-03T08:10:26.148Z,101466.91
2022-08-03T08:12:54.323Z,101466.91
2022-08-03T08:15:23.487Z,101467.19
2022-08-03T08:17:53.850Z,101466.59
2022-08-03T08:20:27.923Z,101471.22
2022-08-03T08:23:01.275Z,101475.00
2022-08-03T08:25:30.740Z,101463.44
2022-08-03T08:28:22.362Z,101465.91
2022-08-03T08:30:47.985Z,101464.25
2022-08-03T08:33:23.111Z,101458.78
2022-08-03T08:35:51.530Z,101459.31
2022-08-03T08:38:19.267Z,101455.69
2022-08-03T08:40:47.143Z,101459.00
2022-08-03T08:43:14.808Z,101462.00
2022-08-03T08:45:42.745Z,101463.63
2022-08-03T08:48:14.158Z,101459.72
2022-08-03T08:50:42.497Z,101451.78
2022-08-03T08:53:18.949Z,101457.50
2022-08-03T08:55:58.343Z,101457.13
2022-08-03T08:58:30.641Z,101454.84
2022-08-03T09:00:58.489Z,101450.16
2022-08-03T09:03:29.134Z,101444.84
2022-08-03T09:06:00.828Z,101453.28
2022-08-03T09:08:29.958Z,101450.19
2022-08-03T09:10:57.713Z,101455.16
2022-08-03T09:13:25.827Z,101450.63
2022-08-03T09:16:12.473Z,101456.94
2022-08-03T09:18:42.468Z,101456.84
2022-08-03T09:21:31.244Z,101456.03
2022-08-03T09:24:03.815Z,101456.56
2022-08-03T09:26:34.258Z,101461.69
2022-08-03T09:29:09.605Z,101454.69
2022-08-03T09:31:43.704Z,101459.00
2022-08-03T09:34:15.858Z,101449.34
2022-08-03T09:36:45.879Z,101460.72
2022-08-03T09:39:15.160Z,101455.22
2022-08-03T09:41:44.177Z,101449.34
2022-08-03T09:44:24.442Z,101453.47
2022-08-03T09:46:56.199Z,101444.28
2022-08-03T09:49:25.792Z,101450.06
2022-08-03T09:52:33.934Z,101451.47
2022-08-03T09:54:42.278Z,101450.66
2022-08-03T09:57:20.701Z,101443.25
2022-08-03T09:59:48.607Z,101448.94
2022-08-03T10:02:24.774Z,101446.72
2022-08-03T10:04:55.125Z,101454.28
2022-08-03T10:07:24.943Z,101450.34
2022-08-03T10:09:55.477Z,101446.75
2022-08-03T10:12:23.256Z,101448.91
2022-08-03T10:14:53.364Z,101452.47
2022-08-03T10:17:21.804Z,101441.69
2022-08-03T10:19:50.401Z,101446.28
2022-08-03T10:22:22.815Z,101448.13
2022-08-03T10:24:55.077Z,101443.66
2022-08-03T10:27:24.773Z,101437.84
2022-08-03T10:29:54.718Z,101441.13
2022-08-03T10:32:28.983Z,101436.66
2022-08-03T10:35:20.786Z,101431.34
2022-08-03T10:37:58.684Z,101437.06
2022-08-03T10:43:22.841Z,101424.78
2022-08-03T10:45:51.474Z,101419.19
2022-08-03T10:48:20.471Z,101415.31
2022-08-03T10:50:50.516Z,101418.47
2022-08-03T10:53:35.786Z,101414.50
2022-08-03T10:56:18.535Z,101410.63
2022-08-03T10:59:03.778Z,101404.50
2022-08-03T11:01:58.868Z,101400.31
2022-08-03T11:04:29.590Z,101407.66
2022-08-03T11:07:20.472Z,101398.78
2022-08-03T11:09:51.614Z,101399.81
2022-08-03T11:12:30.334Z,101391.44
2022-08-03T11:15:01.034Z,101390.19
2022-08-03T11:17:28.951Z,101389.78
2022-08-03T11:19:58.343Z,101390.19
2022-08-03T11:22:28.256Z,101387.63
2022-08-03T11:25:04.418Z,101384.25
2022-08-03T11:27:33.207Z,101386.91
2022-08-03T11:30:03.124Z,101383.22
2022-08-03T11:32:58.414Z,101386.84
2022-08-03T11:35:28.977Z,101397.75
2022-08-03T11:38:05.559Z,101390.97
2022-08-03T11:40:46.435Z,101392.28
2022-08-03T11:43:45.465Z,101386.97
2022-08-03T11:46:29.654Z,101384.59
2022-08-03T11:49:10.444Z,101384.44
2022-08-03T11:51:40.504Z,101382.38
2022-08-03T11:54:08.883Z,101384.31
2022-08-03T11:56:47.602Z,101382.25
2022-08-03T11:59:20.605Z,101388.97
2022-08-03T12:01:49.647Z,101386.31
2022-08-03T12:04:17.335Z,101389.41
2022-08-03T12:06:59.589Z,101389.75
2022-08-03T12:09:27.302Z,101383.75
2022-08-03T12:12:00.407Z,101382.63
2022-08-03T12:14:49.416Z,101382.78
2022-08-03T12:17:18.013Z,101383.97
2022-08-03T12:19:46.212Z,101382.34
2022-08-03T12:22:14.580Z,101393.59
2022-08-03T12:24:43.386Z,101394.41
2022-08-03T12:27:12.594Z,101386.00
2022-08-03T12:29:40.471Z,101379.09
2022-08-03T12:32:08.213Z,101378.81
2022-08-03T12:34:48.628Z,101378.31
2022-08-03T12:37:22.507Z,101384.50
2022-08-03T12:40:02.511Z,101380.94
2022-08-03T12:42:35.803Z,101374.44
2022-08-03T12:45:22.080Z,101382.22
2022-08-03T12:47:54.582Z,101378.00
2022-08-03T12:50:31.407Z,101375.25
2022-08-03T12:53:00.430Z,101380.94
2022-08-03T12:55:57.954Z,101381.28
2022-08-03T12:58:34.168Z,101376.44
2022-08-03T13:01:09.758Z,101383.56
2022-08-03T13:03:43.384Z,101371.22
2022-08-03T13:06:14.672Z,101372.69
2022-08-03T13:08:43.486Z,101370.75
2022-08-03T13:11:21.530Z,101359.38
2022-08-03T13:13:50.980Z,101368.97
2022-08-03T13:16:19.457Z,101373.69
2022-08-03T13:18:48.107Z,101370.94
2022-08-03T13:21:17.104Z,101366.88
2022-08-03T13:23:45.602Z,101359.41
2022-08-03T13:26:14.003Z,101347.38
2022-08-03T13:28:41.769Z,101358.13
2022-08-03T13:31:10.936Z,101368.84
2022-08-03T13:33:40.358Z,101356.66
2022-08-03T13:36:08.284Z,101352.78
2022-08-03T13:38:36.029Z,101360.25
2022-08-03T13:41:04.837Z,101356.19
2022-08-03T13:43:32.894Z,101357.47
2022-08-03T13:46:00.547Z,101362.31
2022-08-03T13:48:36.821Z,101357.94
2022-08-03T13:51:11.689Z,101356.63
2022-08-03T13:53:51.010Z,101358.75
2022-08-03T13:56:18.781Z,101349.63
2022-08-03T13:58:46.534Z,101350.28
2022-08-03T14:01:14.220Z,101350.44
2022-08-03T14:03:43.379Z,101353.53
2022-08-03T14:06:11.484Z,101358.56
2022-08-03T14:08:39.215Z,101355.66
2022-08-03T14:11:07.377Z,101340.22
2022-08-03T14:13:35.204Z,101350.44
2022-08-03T14:16:02.957Z,101346.53
2022-08-03T14:18:33.815Z,101335.31
2022-08-03T14:21:06.986Z,101324.91
2022-08-03T14:23:35.935Z,101328.63
2022-08-03T14:26:03.678Z,101319.19
2022-08-03T14:28:31.381Z,101327.31
2022-08-03T14:30:59.134Z,101318.88
2022-08-03T14:33:28.437Z,101312.00
2022-08-03T14:35:56.324Z,101312.78
2022-08-03T14:38:25.585Z,101317.19
2022-08-03T14:40:53.587Z,101312.78
2022-08-03T14:43:21.544Z,101309.38
2022-08-03T14:45:52.145Z,101307.09
2022-08-03T14:50:34.938Z,101295.53
2022-08-03T14:51:07.722Z,101298.16
2022-08-03T14:53:36.778Z,101293.44
2022-08-03T14:56:09.834Z,101289.69
2022-08-03T14:58:39.052Z,101289.50
2022-08-03T15:02:04.951Z,101280.69
2022-08-03T15:03:55.096Z,101293.31
2022-08-03T15:06:23.271Z,101291.19
2022-08-03T15:09:21.624Z,101286.13
2022-08-03T15:11:40.374Z,101280.75
2022-08-03T15:14:09.483Z,101283.19
2022-08-03T15:16:37.647Z,101278.94
2022-08-03T15:20:01.029Z,101271.44
2022-08-03T15:21:53.197Z,101276.78
2022-08-03T15:24:22.578Z,101271.53
2022-08-03T15:26:51.607Z,101267.28
2022-08-03T15:30:05.829Z,101272.81
2022-08-03T15:32:09.616Z,101270.53
2022-08-03T15:34:37.548Z,101265.00
2022-08-03T15:37:16.196Z,101258.03
2022-08-03T15:39:59.938Z,101245.75
2022-08-03T15:42:28.973Z,101254.66
2022-08-03T15:44:56.735Z,101259.66
2022-08-03T15:47:24.414Z,101257.25
2022-08-03T15:49:52.096Z,101258.25
2022-08-03T15:52:19.785Z,101252.16
2022-08-03T15:54:48.839Z,101240.97
2022-08-03T15:57:16.517Z,101247.31
2022-08-03T15:59:44.243Z,101246.16
2022-08-03T16:02:11.917Z,101243.88
2022-08-03T16:04:39.589Z,101239.47
2022-08-03T16:07:07.322Z,101240.28
2022-08-03T16:09:43.153Z,101244.69
2022-08-03T16:12:15.563Z,101233.13
2022-08-03T16:14:52.271Z,101232.66
2022-08-03T16:17:21.349Z,101232.66
2022-08-03T16:19:49.326Z,101229.09
2022-08-03T16:22:17.392Z,101230.22
2022-08-03T16:24:47.617Z,101228.06
2022-08-03T16:27:36.703Z,101234.41
2022-08-03T16:30:05.479Z,101229.34
2022-08-03T16:32:33.940Z,101229.81
2022-08-03T16:35:01.625Z,101232.25
2022-08-03T16:37:38.537Z,101226.72
2022-08-03T16:40:17.490Z,101232.59
2022-08-03T16:42:48.683Z,101225.44
2022-08-03T16:45:16.415Z,101227.72
2022-08-03T16:47:44.153Z,101222.53
2022-08-03T16:50:18.963Z,101229.88
2022-08-03T16:52:48.303Z,101219.63
2022-08-03T16:55:18.552Z,101213.75
2022-08-03T16:58:06.978Z,101219.41
2022-08-03T17:00:41.707Z,101220.22
2022-08-03T17:03:12.791Z,101213.88
2022-08-03T17:05:49.816Z,101219.75
2022-08-03T17:08:26.184Z,101211.78
2022-08-03T17:10:54.899Z,101218.94
2022-08-03T17:13:27.631Z,101223.22
2022-08-03T17:16:09.404Z,101215.91
2022-08-03T17:18:42.070Z,101202.63
2022-08-03T17:21:18.388Z,101217.19
2022-08-03T17:23:54.890Z,101215.72
2022-08-03T17:26:28.476Z,101207.75
2022-08-03T17:29:11.096Z,101214.91
2022-08-03T17:31:48.663Z,101209.38
2022-08-03T17:34:18.844Z,101208.09
2022-08-03T17:37:03.810Z,101207.63
2022-08-03T17:39:57.099Z,101212.34
2022-08-03T17:42:30.698Z,101213.50
2022-08-03T17:45:03.633Z,101211.88
2022-08-03T17:47:42.529Z,101211.06
2022-08-03T17:50:24.779Z,101209.09
2022-08-03T17:53:07.061Z,101207.47
2022-08-03T17:55:56.147Z,101208.63
2022-08-03T17:58:41.239Z,101198.44
2022-08-03T18:02:00.075Z,101210.59
2022-08-03T18:04:30.219Z,101211.72
2022-08-03T18:07:11.725Z,101207.34
2022-08-03T18:10:04.900Z,101211.25
2022-08-03T18:12:41.567Z,101212.41
2022-08-03T18:15:21.344Z,101211.94
2022-08-03T18:17:55.077Z,101217.81
2022-08-03T18:20:31.244Z,101206.59
2022-08-03T18:23:06.952Z,101203.69
2022-08-03T18:25:42.958Z,101205.19
2022-08-03T18:28:18.802Z,101206.34
2022-08-03T18:30:54.249Z,101210.59
2022-08-03T18:34:18.377Z,101205.38
2022-08-03T18:36:18.164Z,101206.88
2022-08-03T18:38:53.921Z,101209.94
2022-08-03T18:41:32.208Z,101206.34
2022-08-03T18:44:07.879Z,101205.06
2022-08-03T18:46:48.150Z,101197.09
2022-08-03T18:49:29.140Z,101205.41
2022-08-03T18:52:04.024Z,101206.56
2022-08-03T18:54:59.128Z,101203.78
2022-08-03T18:57:38.064Z,101204.94
2022-08-03T19:00:10.441Z,101205.75
2022-08-03T19:02:49.015Z,101205.28
2022-08-03T19:05:21.449Z,101212.75
2022-08-03T19:07:59.842Z,101208.38
2022-08-03T19:10:32.219Z,101213.91
2022-08-03T19:13:11.396Z,101208.72
2022-08-03T19:15:51.299Z,101205.13
2022-08-03T19:18:21.378Z,101211.47
2022-08-03T19:20:54.807Z,101215.38
2022-08-03T19:23:25.908Z,101214.56
2022-08-03T19:26:00.122Z,101210.19
2022-08-03T19:28:30.238Z,101213.78
2022-08-03T19:31:02.840Z,101219.63
2022-08-03T19:33:56.658Z,101221.59
2022-08-03T19:36:27.296Z,101210.59
2022-08-03T19:38:57.221Z,101225.84
2022-08-03T19:41:26.158Z,101224.22
2022-08-03T19:44:04.596Z,101231.69
2022-08-03T19:46:35.045Z,101232.03
2022-08-03T19:49:15.143Z,101241.47
2022-08-03T19:52:00.654Z,101238.25
2022-08-03T19:54:36.408Z,101240.19
2022-08-03T19:57:08.382Z,101245.25
2022-08-03T19:59:49.672Z,101244.78
2022-08-03T20:02:27.047Z,101243.16
2022-08-03T20:04:56.126Z,101237.47
2022-08-03T20:07:25.611Z,101246.25
2022-08-03T20:09:56.210Z,101246.91
2022-08-03T20:12:27.422Z,101243.34
2022-08-03T20:14:56.422Z,101240.09
2022-08-03T20:17:55.228Z,101242.03
2022-08-03T20:20:12.315Z,101242.72
2022-08-03T20:22:45.497Z,101244.34
2022-08-03T20:25:16.250Z,101243.03
2022-08-03T20:28:06.917Z,101239.47
2022-08-03T20:30:38.573Z,101243.38
2022-08-03T20:33:10.333Z,101249.25
2022-08-03T20:35:38.087Z,101252.00
2022-08-03T20:38:14.842Z,101243.91
2022-08-03T20:40:43.899Z,101244.69
2022-08-03T20:43:11.591Z,101245.03
2022-08-03T20:46:01.104Z,101242.44
2022-08-03T20:48:29.863Z,101239.69
2022-08-03T20:50:58.133Z,101243.94
2022-08-03T20:53:57.102Z,101238.69
2022-08-03T20:56:17.162Z,101242.59
2022-08-03T20:58:50.499Z,101240.16
2022-08-03T21:01:27.556Z,101244.41
2022-08-03T21:04:04.475Z,101237.59
2022-08-03T21:06:39.481Z,101246.22
2022-08-03T21:09:15.554Z,101245.41
2022-08-03T21:11:45.594Z,101238.59
2022-08-03T21:14:19.652Z,101238.44
2022-08-03T21:16:51.506Z,101235.66
2022-08-03T21:19:21.194Z,101234.03
2022-08-03T21:21:50.179Z,101228.84
2022-08-03T21:24:22.722Z,101226.41
2022-08-03T21:26:54.528Z,101233.09
2022-08-03T21:29:22.830Z,101221.88
2022-08-03T21:31:51.697Z,101216.69
2022-08-03T21:34:21.037Z,101222.53
2022-08-03T21:36:49.271Z,101224.16
2022-08-03T21:39:17.042Z,101218.97
2022-08-03T21:41:46.451Z,101220.09
2022-08-03T21:44:14.283Z,101219.28
2022-08-03T21:46:43.435Z,101222.06
2022-08-03T21:50:07.443Z,101216.88
2022-08-03T21:52:04.698Z,101213.28
2022-08-03T21:54:36.164Z,101205.34
2022-08-03T21:57:18.773Z,101206.47
2022-08-03T21:59:53.680Z,101210.38
2022-08-03T22:02:24.691Z,101207.94
2022-08-03T22:04:56.369Z,101210.72
2022-08-03T22:07:26.193Z,101205.50
2022-08-03T22:09:55.279Z,101214.13
2022-08-03T22:12:26.258Z,101211.38
2022-08-03T22:15:01.446Z,101214.78
2022-08-03T22:17:55.959Z,101207.63
2022-08-03T22:20:20.249Z,101205.88
2022-08-03T22:22:55.381Z,101204.38
2022-08-03T22:25:28.614Z,101207.47
2022-08-03T22:27:59.067Z,101202.31
2022-08-03T22:30:26.939Z,101208.16
2022-08-03T22:32:57.602Z,101203.78
2022-08-03T22:35:27.316Z,101196.97
2022-08-03T22:37:58.297Z,101202.50
2022-08-03T22:40:27.091Z,101196.16
2022-08-03T22:42:57.817Z,101199.25
2022-08-03T22:46:06.910Z,101188.53
2022-08-03T22:48:17.400Z,101190.81
2022-08-03T22:50:45.354Z,101191.94
2022-08-03T22:53:17.410Z,101185.63
2022-08-03T22:55:45.177Z,101187.88
2022-08-03T22:58:15.472Z,101191.75
2022-08-03T23:00:47.152Z,101186.56
2022-08-03T23:03:24.938Z,101187.72
2022-08-03T23:06:00.518Z,101180.88
2022-08-03T23:08:33.870Z,101187.88
2022-08-03T23:11:08.851Z,101181.88
2022-08-03T23:13:40.894Z,101183.34
2022-08-03T23:16:10.486Z,101188.38
2022-08-03T23:18:40.609Z,101182.69
2022-08-03T23:21:11.368Z,101177.50
2022-08-03T23:23:44.602Z,101188.06
2022-08-03T23:26:13.219Z,101185.63
2022-08-03T23:28:42.740Z,101179.63
2022-08-03T23:31:10.674Z,101190.19
2022-08-03T23:33:41.808Z,101171.03
2022-08-03T23:36:30.954Z,101175.72
2022-08-03T23:38:57.212Z,101174.59
2022-08-03T23:41:24.993Z,101168.91
2022-08-03T23:43:54.502Z,101173.63
2022-08-03T23:46:22.768Z,101169.09
2022-08-03T23:48:51.642Z,101172.66
2022-08-03T23:51:33.359Z,101169.41
2022-08-03T23:54:07.364Z,101174.13
2022-08-03T23:56:44.333Z,101163.41
2022-08-03T23:59:24.806Z,101160.97
